sensor_id;sensor_type;location;lat;lon;timestamp;P1;durP1;ratioP1;P2;durP2;ratioP2
62052;SDS011;48300;52.902;6.534;2023-04-25T00:00:46;17.15;;;3.65;;
62052;SDS011;48300;52.902;6.534;2023-04-25T00:03:12;16.83;;;2.95;;
62052;SDS011;48300;52.902;6.534;2023-04-25T00:05:39;14.40;;;2.83;;
62052;SDS011;48300;52.902;6.534;2023-04-25T00:08:05;18.27;;;3.17;;
62052;SDS011;48300;52.902;6.534;2023-04-25T00:10:31;20.13;;;3.50;;
62052;SDS011;48300;52.902;6.534;2023-04-25T00:12:57;16.73;;;4.03;;
62052;SDS011;48300;52.902;6.534;2023-04-25T00:15:23;21.85;;;3.70;;
62052;SDS011;48300;52.902;6.534;2023-04-25T00:17:50;11.05;;;2.78;;
62052;SDS011;48300;52.902;6.534;2023-04-25T00:20:17;18.73;;;4.00;;
62052;SDS011;48300;52.902;6.534;2023-04-25T00:22:44;11.32;;;2.47;;
62052;SDS011;48300;52.902;6.534;2023-04-25T00:25:10;18.80;;;3.03;;
62052;SDS011;48300;52.902;6.534;2023-04-25T00:27:36;17.13;;;3.28;;
62052;SDS011;48300;52.902;6.534;2023-04-25T00:30:04;18.27;;;3.10;;
62052;SDS011;48300;52.902;6.534;2023-04-25T00:32:30;24.33;;;3.33;;
62052;SDS011;48300;52.902;6.534;2023-04-25T00:34:56;12.20;;;2.50;;
62052;SDS011;48300;52.902;6.534;2023-04-25T00:37:23;22.00;;;4.22;;
62052;SDS011;48300;52.902;6.534;2023-04-25T00:39:49;20.23;;;3.95;;
62052;SDS011;48300;52.902;6.534;2023-04-25T00:42:16;11.30;;;2.72;;
62052;SDS011;48300;52.902;6.534;2023-04-25T00:44:42;19.17;;;3.40;;
62052;SDS011;48300;52.902;6.534;2023-04-25T00:47:09;15.90;;;3.08;;
62052;SDS011;48300;52.902;6.534;2023-04-25T00:49:36;15.80;;;4.43;;
62052;SDS011;48300;52.902;6.534;2023-04-25T00:52:02;17.30;;;3.92;;
62052;SDS011;48300;52.902;6.534;2023-04-25T00:54:28;19.33;;;3.05;;
62052;SDS011;48300;52.902;6.534;2023-04-25T00:56:55;16.17;;;3.05;;
62052;SDS011;48300;52.902;6.534;2023-04-25T00:59:21;16.33;;;3.10;;
62052;SDS011;48300;52.902;6.534;2023-04-25T01:01:48;23.85;;;4.53;;
62052;SDS011;48300;52.902;6.534;2023-04-25T01:04:14;10.63;;;2.55;;
62052;SDS011;48300;52.902;6.534;2023-04-25T01:06:40;19.13;;;3.40;;
62052;SDS011;48300;52.902;6.534;2023-04-25T01:09:06;10.65;;;2.50;;
62052;SDS011;48300;52.902;6.534;2023-04-25T01:11:32;9.90;;;2.85;;
62052;SDS011;48300;52.902;6.534;2023-04-25T01:13:58;19.73;;;2.75;;
62052;SDS011;48300;52.902;6.534;2023-04-25T01:16:25;14.68;;;2.58;;
62052;SDS011;48300;52.902;6.534;2023-04-25T01:18:51;12.80;;;3.17;;
62052;SDS011;48300;52.902;6.534;2023-04-25T01:21:18;20.88;;;3.88;;
62052;SDS011;48300;52.902;6.534;2023-04-25T01:23:44;13.15;;;2.50;;
62052;SDS011;48300;52.902;6.534;2023-04-25T01:26:11;19.67;;;3.03;;
62052;SDS011;48300;52.902;6.534;2023-04-25T01:28:37;15.77;;;3.38;;
62052;SDS011;48300;52.902;6.534;2023-04-25T01:31:06;13.65;;;3.05;;
62052;SDS011;48300;52.902;6.534;2023-04-25T01:33:32;14.52;;;3.05;;
62052;SDS011;48300;52.902;6.534;2023-04-25T01:35:58;18.70;;;2.42;;
62052;SDS011;48300;52.902;6.534;2023-04-25T01:38:25;18.90;;;3.05;;
62052;SDS011;48300;52.902;6.534;2023-04-25T01:40:51;12.95;;;2.50;;
62052;SDS011;48300;52.902;6.534;2023-04-25T01:43:17;20.27;;;3.22;;
62052;SDS011;48300;52.902;6.534;2023-04-25T01:45:43;16.80;;;2.92;;
62052;SDS011;48300;52.902;6.534;2023-04-25T01:48:12;16.42;;;3.33;;
62052;SDS011;48300;52.902;6.534;2023-04-25T01:50:38;23.00;;;4.57;;
62052;SDS011;48300;52.902;6.534;2023-04-25T01:53:05;19.52;;;2.97;;
62052;SDS011;48300;52.902;6.534;2023-04-25T01:55:31;17.50;;;3.05;;
62052;SDS011;48300;52.902;6.534;2023-04-25T01:57:57;18.95;;;3.47;;
62052;SDS011;48300;52.902;6.534;2023-04-25T02:00:25;12.27;;;3.20;;
62052;SDS011;48300;52.902;6.534;2023-04-25T02:02:51;19.77;;;2.80;;
62052;SDS011;48300;52.902;6.534;2023-04-25T02:05:18;18.13;;;2.55;;
62052;SDS011;48300;52.902;6.534;2023-04-25T02:07:46;14.48;;;2.50;;
62052;SDS011;48300;52.902;6.534;2023-04-25T02:10:12;15.55;;;2.25;;
62052;SDS011;48300;52.902;6.534;2023-04-25T02:12:38;10.70;;;1.92;;
62052;SDS011;48300;52.902;6.534;2023-04-25T02:15:04;28.50;;;3.65;;
62052;SDS011;48300;52.902;6.534;2023-04-25T02:17:30;9.35;;;2.25;;
62052;SDS011;48300;52.902;6.534;2023-04-25T02:19:57;11.68;;;2.35;;
62052;SDS011;48300;52.902;6.534;2023-04-25T02:22:23;19.08;;;2.10;;
62052;SDS011;48300;52.902;6.534;2023-04-25T02:24:49;17.10;;;2.53;;
62052;SDS011;48300;52.902;6.534;2023-04-25T02:27:15;23.45;;;2.65;;
62052;SDS011;48300;52.902;6.534;2023-04-25T02:29:41;13.07;;;2.10;;
62052;SDS011;48300;52.902;6.534;2023-04-25T02:32:08;14.73;;;2.10;;
62052;SDS011;48300;52.902;6.534;2023-04-25T02:34:34;18.75;;;2.17;;
62052;SDS011;48300;52.902;6.534;2023-04-25T02:37:00;19.27;;;2.25;;
62052;SDS011;48300;52.902;6.534;2023-04-25T02:39:26;14.50;;;2.72;;
62052;SDS011;48300;52.902;6.534;2023-04-25T02:41:52;14.60;;;2.15;;
62052;SDS011;48300;52.902;6.534;2023-04-25T02:44:18;17.08;;;2.50;;
62052;SDS011;48300;52.902;6.534;2023-04-25T02:46:45;8.93;;;1.80;;
62052;SDS011;48300;52.902;6.534;2023-04-25T02:49:11;17.98;;;2.15;;
62052;SDS011;48300;52.902;6.534;2023-04-25T02:51:37;17.88;;;2.72;;
62052;SDS011;48300;52.902;6.534;2023-04-25T02:54:03;15.93;;;2.72;;
62052;SDS011;48300;52.902;6.534;2023-04-25T02:56:29;14.63;;;2.78;;
62052;SDS011;48300;52.902;6.534;2023-04-25T02:58:55;19.75;;;1.90;;
62052;SDS011;48300;52.902;6.534;2023-04-25T03:01:21;19.33;;;2.10;;
62052;SDS011;48300;52.902;6.534;2023-04-25T03:03:47;12.35;;;1.75;;
62052;SDS011;48300;52.902;6.534;2023-04-25T03:06:14;13.45;;;2.40;;
62052;SDS011;48300;52.902;6.534;2023-04-25T03:08:40;15.05;;;2.08;;
62052;SDS011;48300;52.902;6.534;2023-04-25T03:11:06;16.83;;;1.50;;
62052;SDS011;48300;52.902;6.534;2023-04-25T03:13:33;13.20;;;1.70;;
62052;SDS011;48300;52.902;6.534;2023-04-25T03:15:59;13.70;;;1.50;;
62052;SDS011;48300;52.902;6.534;2023-04-25T03:18:25;14.00;;;1.75;;
62052;SDS011;48300;52.902;6.534;2023-04-25T03:20:51;20.35;;;1.95;;
62052;SDS011;48300;52.902;6.534;2023-04-25T03:23:17;13.20;;;1.67;;
62052;SDS011;48300;52.902;6.534;2023-04-25T03:25:43;10.57;;;1.60;;
62052;SDS011;48300;52.902;6.534;2023-04-25T03:28:09;7.82;;;1.85;;
62052;SDS011;48300;52.902;6.534;2023-04-25T03:30:35;9.70;;;2.17;;
62052;SDS011;48300;52.902;6.534;2023-04-25T03:33:01;6.32;;;1.35;;
62052;SDS011;48300;52.902;6.534;2023-04-25T03:35:27;9.32;;;1.52;;
62052;SDS011;48300;52.902;6.534;2023-04-25T03:37:53;6.40;;;1.13;;
62052;SDS011;48300;52.902;6.534;2023-04-25T03:40:20;9.10;;;2.28;;
62052;SDS011;48300;52.902;6.534;2023-04-25T03:42:46;11.35;;;1.40;;
62052;SDS011;48300;52.902;6.534;2023-04-25T03:45:12;4.20;;;0.90;;
62052;SDS011;48300;52.902;6.534;2023-04-25T03:47:38;6.70;;;0.68;;
62052;SDS011;48300;52.902;6.534;2023-04-25T03:50:04;9.50;;;1.25;;
62052;SDS011;48300;52.902;6.534;2023-04-25T03:52:30;7.85;;;0.95;;
62052;SDS011;48300;52.902;6.534;2023-04-25T03:54:57;16.08;;;1.52;;
62052;SDS011;48300;52.902;6.534;2023-04-25T03:57:23;10.77;;;1.10;;
62052;SDS011;48300;52.902;6.534;2023-04-25T03:59:49;7.70;;;1.10;;
62052;SDS011;48300;52.902;6.534;2023-04-25T04:02:15;8.38;;;2.58;;
62052;SDS011;48300;52.902;6.534;2023-04-25T04:04:41;6.18;;;0.93;;
62052;SDS011;48300;52.902;6.534;2023-04-25T04:07:09;10.10;;;1.20;;
62052;SDS011;48300;52.902;6.534;2023-04-25T04:09:35;10.02;;;0.95;;
62052;SDS011;48300;52.902;6.534;2023-04-25T04:12:01;7.47;;;1.15;;
62052;SDS011;48300;52.902;6.534;2023-04-25T04:14:27;6.72;;;0.70;;
62052;SDS011;48300;52.902;6.534;2023-04-25T04:16:54;5.20;;;1.42;;
62052;SDS011;48300;52.902;6.534;2023-04-25T04:19:20;3.88;;;0.80;;
62052;SDS011;48300;52.902;6.534;2023-04-25T04:21:46;7.65;;;0.77;;
62052;SDS011;48300;52.902;6.534;2023-04-25T04:24:12;5.68;;;0.80;;
62052;SDS011;48300;52.902;6.534;2023-04-25T04:26:38;5.50;;;1.20;;
62052;SDS011;48300;52.902;6.534;2023-04-25T04:29:04;10.57;;;1.27;;
62052;SDS011;48300;52.902;6.534;2023-04-25T04:31:32;6.15;;;1.48;;
62052;SDS011;48300;52.902;6.534;2023-04-25T04:33:58;5.30;;;1.17;;
62052;SDS011;48300;52.902;6.534;2023-04-25T04:36:24;6.20;;;1.05;;
62052;SDS011;48300;52.902;6.534;2023-04-25T04:38:51;8.10;;;1.45;;
62052;SDS011;48300;52.902;6.534;2023-04-25T04:41:17;7.82;;;1.08;;
62052;SDS011;48300;52.902;6.534;2023-04-25T04:43:44;7.53;;;1.63;;
62052;SDS011;48300;52.902;6.534;2023-04-25T04:46:10;4.60;;;0.85;;
62052;SDS011;48300;52.902;6.534;2023-04-25T04:48:38;5.43;;;0.90;;
62052;SDS011;48300;52.902;6.534;2023-04-25T04:51:05;5.65;;;1.02;;
62052;SDS011;48300;52.902;6.534;2023-04-25T04:53:31;6.30;;;1.63;;
62052;SDS011;48300;52.902;6.534;2023-04-25T04:55:58;7.25;;;0.88;;
62052;SDS011;48300;52.902;6.534;2023-04-25T04:58:24;5.32;;;1.40;;
62052;SDS011;48300;52.902;6.534;2023-04-25T05:00:50;3.78;;;0.82;;
62052;SDS011;48300;52.902;6.534;2023-04-25T05:03:16;4.68;;;0.80;;
62052;SDS011;48300;52.902;6.534;2023-04-25T05:05:42;13.20;;;1.67;;
62052;SDS011;48300;52.902;6.534;2023-04-25T05:08:08;6.45;;;1.08;;
62052;SDS011;48300;52.902;6.534;2023-04-25T05:10:34;8.43;;;1.10;;
62052;SDS011;48300;52.902;6.534;2023-04-25T05:13:00;8.88;;;1.55;;
62052;SDS011;48300;52.902;6.534;2023-04-25T05:15:27;7.55;;;1.13;;
62052;SDS011;48300;52.902;6.534;2023-04-25T05:17:53;4.25;;;1.10;;
62052;SDS011;48300;52.902;6.534;2023-04-25T05:20:19;10.30;;;1.30;;
62052;SDS011;48300;52.902;6.534;2023-04-25T05:22:45;13.43;;;1.33;;
62052;SDS011;48300;52.902;6.534;2023-04-25T05:25:11;12.32;;;1.02;;
62052;SDS011;48300;52.902;6.534;2023-04-25T05:27:38;4.65;;;1.15;;
62052;SDS011;48300;52.902;6.534;2023-04-25T05:30:04;13.90;;;1.70;;
62052;SDS011;48300;52.902;6.534;2023-04-25T05:32:30;5.85;;;1.17;;
62052;SDS011;48300;52.902;6.534;2023-04-25T05:34:56;15.45;;;2.33;;
62052;SDS011;48300;52.902;6.534;2023-04-25T05:37:22;13.05;;;1.77;;
62052;SDS011;48300;52.902;6.534;2023-04-25T05:39:49;11.45;;;1.90;;
62052;SDS011;48300;52.902;6.534;2023-04-25T05:42:15;8.45;;;1.23;;
62052;SDS011;48300;52.902;6.534;2023-04-25T05:44:41;5.60;;;1.20;;
62052;SDS011;48300;52.902;6.534;2023-04-25T05:47:07;12.20;;;1.38;;
62052;SDS011;48300;52.902;6.534;2023-04-25T05:49:34;11.32;;;1.45;;
62052;SDS011;48300;52.902;6.534;2023-04-25T05:52:00;9.45;;;1.48;;
62052;SDS011;48300;52.902;6.534;2023-04-25T05:54:26;18.60;;;2.83;;
62052;SDS011;48300;52.902;6.534;2023-04-25T05:56:52;13.00;;;2.20;;
62052;SDS011;48300;52.902;6.534;2023-04-25T05:59:18;13.40;;;2.03;;
62052;SDS011;48300;52.902;6.534;2023-04-25T06:01:45;12.05;;;1.58;;
62052;SDS011;48300;52.902;6.534;2023-04-25T06:04:11;8.73;;;1.42;;
62052;SDS011;48300;52.902;6.534;2023-04-25T06:06:37;11.65;;;1.60;;
62052;SDS011;48300;52.902;6.534;2023-04-25T06:09:04;9.32;;;1.40;;
62052;SDS011;48300;52.902;6.534;2023-04-25T06:11:30;6.55;;;1.30;;
62052;SDS011;48300;52.902;6.534;2023-04-25T06:13:56;11.45;;;1.80;;
62052;SDS011;48300;52.902;6.534;2023-04-25T06:16:22;8.98;;;1.50;;
62052;SDS011;48300;52.902;6.534;2023-04-25T06:18:50;9.93;;;1.10;;
62052;SDS011;48300;52.902;6.534;2023-04-25T06:21:17;8.13;;;1.10;;
62052;SDS011;48300;52.902;6.534;2023-04-25T06:23:43;13.88;;;1.55;;
62052;SDS011;48300;52.902;6.534;2023-04-25T06:26:09;13.00;;;1.55;;
62052;SDS011;48300;52.902;6.534;2023-04-25T06:28:35;15.95;;;1.60;;
62052;SDS011;48300;52.902;6.534;2023-04-25T06:31:01;9.50;;;1.42;;
62052;SDS011;48300;52.902;6.534;2023-04-25T06:33:27;9.77;;;1.60;;
62052;SDS011;48300;52.902;6.534;2023-04-25T06:35:53;7.60;;;1.63;;
62052;SDS011;48300;52.902;6.534;2023-04-25T06:38:20;4.65;;;1.17;;
62052;SDS011;48300;52.902;6.534;2023-04-25T06:40:46;12.45;;;1.17;;
62052;SDS011;48300;52.902;6.534;2023-04-25T06:43:12;6.82;;;1.00;;
62052;SDS011;48300;52.902;6.534;2023-04-25T06:45:38;18.40;;;1.98;;
62052;SDS011;48300;52.902;6.534;2023-04-25T06:48:05;5.95;;;1.00;;
62052;SDS011;48300;52.902;6.534;2023-04-25T06:50:31;12.32;;;1.45;;
62052;SDS011;48300;52.902;6.534;2023-04-25T06:52:57;10.00;;;1.92;;
62052;SDS011;48300;52.902;6.534;2023-04-25T06:55:23;8.30;;;1.00;;
62052;SDS011;48300;52.902;6.534;2023-04-25T06:57:49;12.15;;;0.77;;
62052;SDS011;48300;52.902;6.534;2023-04-25T07:00:15;7.32;;;0.98;;
62052;SDS011;48300;52.902;6.534;2023-04-25T07:02:42;9.32;;;1.00;;
62052;SDS011;48300;52.902;6.534;2023-04-25T07:05:08;10.35;;;1.10;;
62052;SDS011;48300;52.902;6.534;2023-04-25T07:07:34;14.00;;;3.45;;
62052;SDS011;48300;52.902;6.534;2023-04-25T07:10:01;9.98;;;1.48;;
62052;SDS011;48300;52.902;6.534;2023-04-25T07:12:27;9.13;;;1.20;;
62052;SDS011;48300;52.902;6.534;2023-04-25T07:14:53;16.98;;;3.25;;
62052;SDS011;48300;52.902;6.534;2023-04-25T07:17:19;10.38;;;1.67;;
62052;SDS011;48300;52.902;6.534;2023-04-25T07:19:45;5.65;;;0.82;;
62052;SDS011;48300;52.902;6.534;2023-04-25T07:22:11;5.10;;;0.82;;
62052;SDS011;48300;52.902;6.534;2023-04-25T07:24:37;10.57;;;0.80;;
62052;SDS011;48300;52.902;6.534;2023-04-25T07:27:03;7.78;;;1.00;;
62052;SDS011;48300;52.902;6.534;2023-04-25T07:29:30;8.45;;;1.02;;
62052;SDS011;48300;52.902;6.534;2023-04-25T07:31:56;11.93;;;1.05;;
62052;SDS011;48300;52.902;6.534;2023-04-25T07:34:22;7.05;;;1.10;;
62052;SDS011;48300;52.902;6.534;2023-04-25T07:36:49;5.07;;;1.13;;
62052;SDS011;48300;52.902;6.534;2023-04-25T07:39:15;5.57;;;1.02;;
62052;SDS011;48300;52.902;6.534;2023-04-25T07:41:42;5.78;;;1.20;;
62052;SDS011;48300;52.902;6.534;2023-04-25T07:44:08;6.32;;;1.08;;
62052;SDS011;48300;52.902;6.534;2023-04-25T07:46:34;8.45;;;1.23;;
62052;SDS011;48300;52.902;6.534;2023-04-25T07:49:00;5.07;;;0.90;;
62052;SDS011;48300;52.902;6.534;2023-04-25T07:51:27;8.00;;;0.88;;
62052;SDS011;48300;52.902;6.534;2023-04-25T07:53:53;7.10;;;0.90;;
62052;SDS011;48300;52.902;6.534;2023-04-25T07:56:19;4.00;;;0.88;;
62052;SDS011;48300;52.902;6.534;2023-04-25T07:58:46;6.45;;;0.80;;
62052;SDS011;48300;52.902;6.534;2023-04-25T08:01:12;11.23;;;0.90;;
62052;SDS011;48300;52.902;6.534;2023-04-25T08:03:38;9.43;;;0.80;;
62052;SDS011;48300;52.902;6.534;2023-04-25T08:06:05;7.40;;;0.85;;
62052;SDS011;48300;52.902;6.534;2023-04-25T08:08:31;7.13;;;0.50;;
62052;SDS011;48300;52.902;6.534;2023-04-25T08:10:57;5.20;;;0.50;;
62052;SDS011;48300;52.902;6.534;2023-04-25T08:13:23;3.33;;;0.70;;
62052;SDS011;48300;52.902;6.534;2023-04-25T08:15:49;3.95;;;1.10;;
62052;SDS011;48300;52.902;6.534;2023-04-25T08:18:15;9.82;;;1.05;;
62052;SDS011;48300;52.902;6.534;2023-04-25T08:20:41;7.35;;;0.88;;
62052;SDS011;48300;52.902;6.534;2023-04-25T08:23:07;5.03;;;0.90;;
62052;SDS011;48300;52.902;6.534;2023-04-25T08:25:35;8.73;;;1.67;;
62052;SDS011;48300;52.902;6.534;2023-04-25T08:28:01;5.93;;;0.88;;
62052;SDS011;48300;52.902;6.534;2023-04-25T08:30:28;2.80;;;0.82;;
62052;SDS011;48300;52.902;6.534;2023-04-25T08:32:54;5.32;;;0.60;;
62052;SDS011;48300;52.902;6.534;2023-04-25T08:35:20;6.65;;;1.00;;
62052;SDS011;48300;52.902;6.534;2023-04-25T08:37:46;6.55;;;0.80;;
62052;SDS011;48300;52.902;6.534;2023-04-25T08:40:14;7.10;;;0.98;;
62052;SDS011;48300;52.902;6.534;2023-04-25T08:42:41;5.55;;;1.00;;
62052;SDS011;48300;52.902;6.534;2023-04-25T08:45:08;6.57;;;0.80;;
62052;SDS011;48300;52.902;6.534;2023-04-25T08:47:34;4.88;;;0.68;;
62052;SDS011;48300;52.902;6.534;2023-04-25T08:50:02;5.50;;;0.70;;
62052;SDS011;48300;52.902;6.534;2023-04-25T08:52:29;11.55;;;0.88;;
62052;SDS011;48300;52.902;6.534;2023-04-25T08:54:56;3.53;;;0.52;;
62052;SDS011;48300;52.902;6.534;2023-04-25T08:57:23;9.63;;;0.90;;
62052;SDS011;48300;52.902;6.534;2023-04-25T08:59:49;8.35;;;0.93;;
62052;SDS011;48300;52.902;6.534;2023-04-25T09:02:15;12.10;;;0.75;;
62052;SDS011;48300;52.902;6.534;2023-04-25T09:04:44;9.80;;;1.00;;
62052;SDS011;48300;52.902;6.534;2023-04-25T09:07:11;6.97;;;0.68;;
62052;SDS011;48300;52.902;6.534;2023-04-25T09:09:37;6.43;;;0.73;;
62052;SDS011;48300;52.902;6.534;2023-04-25T09:12:04;5.10;;;0.52;;
62052;SDS011;48300;52.902;6.534;2023-04-25T09:14:30;4.00;;;0.40;;
62052;SDS011;48300;52.902;6.534;2023-04-25T09:19:25;5.78;;;0.70;;
62052;SDS011;48300;52.902;6.534;2023-04-25T09:21:55;4.10;;;0.68;;
62052;SDS011;48300;52.902;6.534;2023-04-25T09:24:37;8.43;;;0.80;;
62052;SDS011;48300;52.902;6.534;2023-04-25T09:27:04;5.47;;;0.70;;
62052;SDS011;48300;52.902;6.534;2023-04-25T09:29:31;7.55;;;0.68;;
62052;SDS011;48300;52.902;6.534;2023-04-25T09:32:10;5.70;;;0.65;;
62052;SDS011;48300;52.902;6.534;2023-04-25T09:34:43;5.25;;;0.90;;
62052;SDS011;48300;52.902;6.534;2023-04-25T09:37:10;5.15;;;1.15;;
62052;SDS011;48300;52.902;6.534;2023-04-25T09:39:36;3.92;;;0.68;;
62052;SDS011;48300;52.902;6.534;2023-04-25T09:42:03;10.05;;;0.80;;
62052;SDS011;48300;52.902;6.534;2023-04-25T09:44:29;6.13;;;0.55;;
62052;SDS011;48300;52.902;6.534;2023-04-25T09:46:55;4.65;;;0.65;;
62052;SDS011;48300;52.902;6.534;2023-04-25T09:49:22;7.70;;;0.68;;
62052;SDS011;48300;52.902;6.534;2023-04-25T09:51:58;11.65;;;1.77;;
62052;SDS011;48300;52.902;6.534;2023-04-25T09:54:25;5.95;;;0.88;;
62052;SDS011;48300;52.902;6.534;2023-04-25T09:56:52;4.85;;;0.70;;
62052;SDS011;48300;52.902;6.534;2023-04-25T09:59:20;4.32;;;0.73;;
62052;SDS011;48300;52.902;6.534;2023-04-25T10:01:48;3.40;;;0.55;;
62052;SDS011;48300;52.902;6.534;2023-04-25T10:04:16;4.00;;;0.70;;
62052;SDS011;48300;52.902;6.534;2023-04-25T10:06:45;3.67;;;0.60;;
62052;SDS011;48300;52.902;6.534;2023-04-25T10:09:14;7.57;;;0.60;;
62052;SDS011;48300;52.902;6.534;2023-04-25T10:11:40;8.90;;;0.98;;
62052;SDS011;48300;52.902;6.534;2023-04-25T10:14:07;8.50;;;0.75;;
62052;SDS011;48300;52.902;6.534;2023-04-25T10:16:33;2.30;;;0.70;;
62052;SDS011;48300;52.902;6.534;2023-04-25T10:18:59;4.50;;;0.90;;
62052;SDS011;48300;52.902;6.534;2023-04-25T10:21:26;5.80;;;0.82;;
62052;SDS011;48300;52.902;6.534;2023-04-25T10:23:54;7.22;;;0.80;;
62052;SDS011;48300;52.902;6.534;2023-04-25T10:26:20;6.72;;;1.00;;
62052;SDS011;48300;52.902;6.534;2023-04-25T10:28:57;6.68;;;1.00;;
62052;SDS011;48300;52.902;6.534;2023-04-25T10:31:23;5.40;;;0.82;;
62052;SDS011;48300;52.902;6.534;2023-04-25T10:36:19;6.57;;;1.00;;
62052;SDS011;48300;52.902;6.534;2023-04-25T10:38:47;11.25;;;1.42;;
62052;SDS011;48300;52.902;6.534;2023-04-25T10:41:16;7.43;;;1.25;;
62052;SDS011;48300;52.902;6.534;2023-04-25T10:43:44;11.60;;;1.45;;
62052;SDS011;48300;52.902;6.534;2023-04-25T10:46:12;6.70;;;0.90;;
62052;SDS011;48300;52.902;6.534;2023-04-25T10:48:43;4.45;;;1.10;;
62052;SDS011;48300;52.902;6.534;2023-04-25T10:51:11;5.38;;;0.90;;
62052;SDS011;48300;52.902;6.534;2023-04-25T10:53:37;7.88;;;0.98;;
62052;SDS011;48300;52.902;6.534;2023-04-25T10:56:11;7.75;;;1.10;;
62052;SDS011;48300;52.902;6.534;2023-04-25T10:58:41;8.70;;;1.25;;
62052;SDS011;48300;52.902;6.534;2023-04-25T11:01:07;6.03;;;0.98;;
62052;SDS011;48300;52.902;6.534;2023-04-25T11:03:38;8.30;;;0.70;;
62052;SDS011;48300;52.902;6.534;2023-04-25T11:06:04;14.25;;;1.40;;
62052;SDS011;48300;52.902;6.534;2023-04-25T11:08:37;5.07;;;0.93;;
62052;SDS011;48300;52.902;6.534;2023-04-25T11:11:10;4.88;;;0.73;;
62052;SDS011;48300;52.902;6.534;2023-04-25T11:13:37;8.13;;;0.77;;
62052;SDS011;48300;52.902;6.534;2023-04-25T11:16:06;7.13;;;1.00;;
62052;SDS011;48300;52.902;6.534;2023-04-25T11:18:32;6.53;;;0.80;;
62052;SDS011;48300;52.902;6.534;2023-04-25T11:20:59;4.32;;;0.55;;
62052;SDS011;48300;52.902;6.534;2023-04-25T11:23:26;5.75;;;0.50;;
62052;SDS011;48300;52.902;6.534;2023-04-25T11:25:52;4.05;;;0.50;;
62052;SDS011;48300;52.902;6.534;2023-04-25T11:28:21;3.70;;;0.75;;
62052;SDS011;48300;52.902;6.534;2023-04-25T11:30:48;3.47;;;0.63;;
62052;SDS011;48300;52.902;6.534;2023-04-25T11:33:16;4.28;;;0.57;;
62052;SDS011;48300;52.902;6.534;2023-04-25T11:35:43;3.60;;;0.40;;
62052;SDS011;48300;52.902;6.534;2023-04-25T11:38:09;6.75;;;0.80;;
62052;SDS011;48300;52.902;6.534;2023-04-25T11:40:35;5.25;;;1.25;;
62052;SDS011;48300;52.902;6.534;2023-04-25T11:43:01;5.05;;;0.55;;
62052;SDS011;48300;52.902;6.534;2023-04-25T11:45:28;10.35;;;0.80;;
62052;SDS011;48300;52.902;6.534;2023-04-25T11:47:56;4.10;;;1.00;;
62052;SDS011;48300;52.902;6.534;2023-04-25T11:50:22;9.25;;;0.70;;
62052;SDS011;48300;52.902;6.534;2023-04-25T11:52:48;6.47;;;1.38;;
62052;SDS011;48300;52.902;6.534;2023-04-25T11:55:16;4.95;;;0.60;;
62052;SDS011;48300;52.902;6.534;2023-04-25T11:57:42;4.82;;;0.70;;
62052;SDS011;48300;52.902;6.534;2023-04-25T12:00:13;3.67;;;0.70;;
62052;SDS011;48300;52.902;6.534;2023-04-25T12:02:43;1.88;;;0.50;;
62052;SDS011;48300;52.902;6.534;2023-04-25T12:05:10;3.45;;;0.52;;
62052;SDS011;48300;52.902;6.534;2023-04-25T12:07:36;3.42;;;0.60;;
62052;SDS011;48300;52.902;6.534;2023-04-25T12:10:05;6.80;;;0.77;;
62052;SDS011;48300;52.902;6.534;2023-04-25T12:12:33;2.60;;;0.60;;
62052;SDS011;48300;52.902;6.534;2023-04-25T12:15:09;3.90;;;0.70;;
62052;SDS011;48300;52.902;6.534;2023-04-25T12:17:36;7.13;;;0.70;;
62052;SDS011;48300;52.902;6.534;2023-04-25T12:20:08;4.15;;;1.17;;
62052;SDS011;48300;52.902;6.534;2023-04-25T12:22:34;7.03;;;0.70;;
62052;SDS011;48300;52.902;6.534;2023-04-25T12:25:01;6.53;;;0.75;;
62052;SDS011;48300;52.902;6.534;2023-04-25T12:27:30;5.47;;;0.90;;
62052;SDS011;48300;52.902;6.534;2023-04-25T12:29:57;4.60;;;0.90;;
62052;SDS011;48300;52.902;6.534;2023-04-25T12:32:23;4.63;;;1.17;;
62052;SDS011;48300;52.902;6.534;2023-04-25T12:34:51;8.40;;;1.30;;
62052;SDS011;48300;52.902;6.534;2023-04-25T12:37:18;4.68;;;0.82;;
62052;SDS011;48300;52.902;6.534;2023-04-25T12:39:44;3.40;;;0.82;;
62052;SDS011;48300;52.902;6.534;2023-04-25T12:42:11;7.55;;;1.10;;
62052;SDS011;48300;52.902;6.534;2023-04-25T12:44:37;5.30;;;0.93;;
62052;SDS011;48300;52.902;6.534;2023-04-25T12:47:03;5.18;;;0.90;;
62052;SDS011;48300;52.902;6.534;2023-04-25T12:49:30;9.05;;;0.93;;
62052;SDS011;48300;52.902;6.534;2023-04-25T12:51:56;8.98;;;1.88;;
62052;SDS011;48300;52.902;6.534;2023-04-25T12:54:23;7.70;;;0.82;;
62052;SDS011;48300;52.902;6.534;2023-04-25T12:56:50;5.30;;;0.95;;
62052;SDS011;48300;52.902;6.534;2023-04-25T12:59:16;6.47;;;0.80;;
62052;SDS011;48300;52.902;6.534;2023-04-25T13:01:43;6.30;;;0.82;;
62052;SDS011;48300;52.902;6.534;2023-04-25T13:04:10;7.13;;;0.82;;
62052;SDS011;48300;52.902;6.534;2023-04-25T13:06:36;8.60;;;0.70;;
62052;SDS011;48300;52.902;6.534;2023-04-25T13:09:03;5.20;;;0.85;;
62052;SDS011;48300;52.902;6.534;2023-04-25T13:11:29;2.28;;;0.52;;
62052;SDS011;48300;52.902;6.534;2023-04-25T13:13:56;5.97;;;1.15;;
62052;SDS011;48300;52.902;6.534;2023-04-25T13:16:22;4.05;;;0.68;;
62052;SDS011;48300;52.902;6.534;2023-04-25T13:18:48;5.25;;;0.63;;
62052;SDS011;48300;52.902;6.534;2023-04-25T13:21:14;7.88;;;0.88;;
62052;SDS011;48300;52.902;6.534;2023-04-25T13:23:41;6.97;;;0.95;;
62052;SDS011;48300;52.902;6.534;2023-04-25T13:28:35;4.13;;;0.60;;
62052;SDS011;48300;52.902;6.534;2023-04-25T13:31:01;8.40;;;0.73;;
62052;SDS011;48300;52.902;6.534;2023-04-25T13:33:28;6.07;;;1.08;;
62052;SDS011;48300;52.902;6.534;2023-04-25T13:35:54;7.43;;;0.77;;
62052;SDS011;48300;52.902;6.534;2023-04-25T13:38:22;4.70;;;0.70;;
62052;SDS011;48300;52.902;6.534;2023-04-25T13:40:49;5.30;;;0.60;;
62052;SDS011;48300;52.902;6.534;2023-04-25T13:43:18;5.40;;;0.75;;
62052;SDS011;48300;52.902;6.534;2023-04-25T13:45:44;7.82;;;0.98;;
62052;SDS011;48300;52.902;6.534;2023-04-25T13:48:14;5.32;;;0.60;;
62052;SDS011;48300;52.902;6.534;2023-04-25T13:50:40;4.78;;;0.77;;
62052;SDS011;48300;52.902;6.534;2023-04-25T13:53:06;5.47;;;0.90;;
62052;SDS011;48300;52.902;6.534;2023-04-25T13:55:33;6.40;;;0.65;;
62052;SDS011;48300;52.902;6.534;2023-04-25T13:58:02;6.28;;;0.98;;
62052;SDS011;48300;52.902;6.534;2023-04-25T14:00:32;6.47;;;0.90;;
62052;SDS011;48300;52.902;6.534;2023-04-25T14:02:59;3.50;;;0.77;;
62052;SDS011;48300;52.902;6.534;2023-04-25T14:05:25;3.83;;;0.55;;
62052;SDS011;48300;52.902;6.534;2023-04-25T14:07:51;2.92;;;0.57;;
62052;SDS011;48300;52.902;6.534;2023-04-25T14:10:17;4.70;;;1.25;;
62052;SDS011;48300;52.902;6.534;2023-04-25T14:12:43;4.63;;;0.65;;
62052;SDS011;48300;52.902;6.534;2023-04-25T14:15:10;9.25;;;1.00;;
62052;SDS011;48300;52.902;6.534;2023-04-25T14:17:36;5.10;;;0.70;;
62052;SDS011;48300;52.902;6.534;2023-04-25T14:20:02;8.93;;;1.00;;
62052;SDS011;48300;52.902;6.534;2023-04-25T14:22:30;4.18;;;0.80;;
62052;SDS011;48300;52.902;6.534;2023-04-25T14:24:56;6.95;;;1.15;;
62052;SDS011;48300;52.902;6.534;2023-04-25T14:27:23;4.80;;;0.80;;
62052;SDS011;48300;52.902;6.534;2023-04-25T14:29:49;4.38;;;1.10;;
62052;SDS011;48300;52.902;6.534;2023-04-25T14:32:16;2.65;;;1.00;;
62052;SDS011;48300;52.902;6.534;2023-04-25T14:34:42;7.40;;;1.00;;
62052;SDS011;48300;52.902;6.534;2023-04-25T14:37:08;6.60;;;0.93;;
62052;SDS011;48300;52.902;6.534;2023-04-25T14:39:34;10.85;;;1.10;;
62052;SDS011;48300;52.902;6.534;2023-04-25T14:42:01;1.80;;;0.60;;
62052;SDS011;48300;52.902;6.534;2023-04-25T14:44:28;5.47;;;0.73;;
62052;SDS011;48300;52.902;6.534;2023-04-25T14:46:54;4.63;;;1.08;;